Terminal Aerodrome Forecast
Issued by NWS

Home | Current Version | Previous Version | Text Only | Print | Product List | Glossary On
Versions: 1 2 3 4 5 6 7 8 9 10 11 12 13 14
000
FTUS46 KSGX 290909 AAA
TAFSNA
TAF AMD
KSNA 290909Z 2909/3006 10004KT P6SM SKC
     FM291000 15005KT P6SM BKN023
     FM291900 21009KT P6SM SCT025
     FM300100 VRB04KT P6SM SCT025=

USA.gov is the U.S. government's official web portal to all federal, state and local government web resources and services.